createdAt,value
2023-05-15T00:00:53.499Z,22.19
2023-05-15T00:01:53.497Z,22.20
2023-05-15T00:02:53.606Z,22.22
2023-05-15T00:03:53.548Z,22.23
2023-05-15T00:04:53.563Z,22.22
2023-05-15T00:05:53.502Z,22.23
2023-05-15T00:06:53.530Z,22.23
2023-05-15T00:07:53.524Z,22.24
2023-05-15T00:08:53.520Z,22.24
2023-05-15T00:09:53.523Z,22.24
2023-05-15T00:11:01.641Z,22.24
2023-05-15T00:11:53.537Z,22.23
2023-05-15T00:12:53.481Z,22.24
2023-05-15T00:13:53.459Z,22.24
2023-05-15T00:14:53.431Z,22.24
2023-05-15T00:15:53.445Z,22.24
2023-05-15T00:16:53.386Z,22.25
2023-05-15T00:17:53.489Z,22.23
2023-05-15T00:18:53.393Z,22.24
2023-05-15T00:19:53.321Z,22.23
2023-05-15T00:20:53.294Z,22.24
2023-05-15T00:21:53.281Z,22.24
2023-05-15T00:22:53.249Z,22.24
2023-05-15T00:23:53.229Z,22.24
2023-05-15T00:24:53.235Z,22.23
2023-05-15T00:25:53.184Z,22.24
2023-05-15T00:26:53.166Z,22.23
2023-05-15T00:27:53.165Z,22.24
2023-05-15T00:28:53.125Z,22.24
2023-05-15T00:29:53.094Z,22.23
2023-05-15T00:30:53.073Z,22.23
2023-05-15T00:31:53.095Z,22.23
2023-05-15T00:32:53.075Z,22.23
2023-05-15T00:33:53.012Z,22.23
2023-05-15T00:34:52.995Z,22.23
2023-05-15T00:35:52.960Z,22.23
2023-05-15T00:36:52.962Z,22.24
2023-05-15T00:37:52.929Z,22.24
2023-05-15T00:38:52.904Z,22.23
2023-05-15T00:39:52.879Z,22.23
2023-05-15T00:40:52.866Z,22.23
2023-05-15T00:41:52.844Z,22.23
2023-05-15T00:42:52.828Z,22.23
2023-05-15T00:43:52.883Z,22.23
2023-05-15T00:44:52.790Z,22.22
2023-05-15T00:45:52.789Z,22.23
2023-05-15T00:46:52.878Z,22.23
2023-05-15T00:47:52.947Z,22.23
2023-05-15T00:48:52.936Z,22.23
2023-05-15T00:49:52.999Z,22.23
2023-05-15T00:50:53.000Z,22.23
2023-05-15T00:51:53.049Z,22.23
2023-05-15T00:52:53.076Z,22.23
2023-05-15T00:53:53.133Z,22.23
2023-05-15T00:54:53.163Z,22.22
2023-05-15T00:55:53.210Z,22.23
2023-05-15T00:56:53.250Z,22.22
2023-05-15T00:57:53.298Z,22.23
2023-05-15T00:58:53.323Z,22.23
2023-05-15T00:59:53.389Z,22.23
2023-05-15T01:00:53.450Z,22.22
2023-05-15T01:01:53.509Z,22.22
2023-05-15T01:02:53.615Z,22.22
2023-05-15T01:03:53.541Z,22.22
2023-05-15T01:04:53.584Z,22.22
2023-05-15T01:05:53.628Z,22.22
2023-05-15T01:06:53.664Z,22.23
2023-05-15T01:07:53.692Z,22.22
2023-05-15T01:08:53.746Z,22.22
2023-05-15T01:09:53.784Z,22.22
2023-05-15T01:10:53.814Z,22.22
2023-05-15T01:11:53.857Z,22.21
2023-05-15T01:12:53.900Z,22.22
2023-05-15T01:13:53.946Z,22.22
2023-05-15T01:14:53.994Z,22.22
2023-05-15T01:15:54.071Z,22.22
2023-05-15T01:16:54.089Z,22.21
2023-05-15T01:17:54.172Z,22.22
2023-05-15T01:18:54.255Z,22.22
2023-05-15T01:19:54.556Z,22.22
2023-05-15T01:20:54.270Z,22.22
2023-05-15T01:21:54.318Z,22.22
2023-05-15T01:22:54.361Z,22.21
2023-05-15T01:23:54.408Z,22.21
2023-05-15T01:24:54.456Z,22.22
2023-05-15T01:25:54.509Z,22.21
2023-05-15T01:26:54.550Z,22.22
2023-05-15T01:27:54.605Z,22.21
2023-05-15T01:28:54.643Z,22.22
2023-05-15T01:29:54.689Z,22.21
2023-05-15T01:30:54.742Z,22.22
2023-05-15T01:31:54.859Z,22.21
2023-05-15T01:32:54.828Z,22.21
2023-05-15T01:33:54.880Z,22.21
2023-05-15T01:34:54.919Z,22.21
2023-05-15T01:35:54.967Z,22.21
2023-05-15T01:36:55.009Z,22.21
2023-05-15T01:37:55.052Z,22.21
2023-05-15T01:38:55.091Z,22.21
2023-05-15T01:39:55.140Z,22.21
2023-05-15T01:40:55.179Z,22.21
2023-05-15T01:41:55.231Z,22.21
2023-05-15T01:42:55.280Z,22.21
2023-05-15T01:43:55.333Z,22.21
2023-05-15T01:44:55.366Z,22.20
2023-05-15T01:45:55.425Z,22.21
2023-05-15T01:46:55.526Z,22.20
2023-05-15T01:47:55.553Z,22.21
2023-05-15T01:48:55.512Z,22.20
2023-05-15T01:49:55.552Z,22.21
2023-05-15T01:50:55.603Z,22.20
2023-05-15T01:51:55.636Z,22.20
2023-05-15T01:52:55.682Z,22.21
2023-05-15T01:53:55.724Z,22.20
2023-05-15T01:54:55.772Z,22.20
2023-05-15T01:55:55.811Z,22.20
2023-05-15T01:56:55.856Z,22.20
2023-05-15T01:57:55.898Z,22.20
2023-05-15T01:58:55.941Z,22.20
2023-05-15T01:59:55.981Z,22.20
2023-05-15T02:00:56.024Z,22.20
2023-05-15T02:01:56.149Z,22.21
2023-05-15T02:02:56.206Z,22.20
2023-05-15T02:03:56.233Z,22.20
2023-05-15T02:04:56.197Z,22.20
2023-05-15T02:05:56.246Z,22.20
2023-05-15T02:06:56.298Z,22.19
2023-05-15T02:07:56.338Z,22.20
2023-05-15T02:08:56.380Z,22.20
2023-05-15T02:09:56.419Z,22.20
2023-05-15T02:10:56.469Z,22.20
2023-05-15T02:11:56.511Z,22.20
2023-05-15T02:12:56.554Z,22.20
2023-05-15T02:13:56.600Z,22.20
2023-05-15T02:14:56.639Z,22.20
2023-05-15T02:15:56.720Z,22.20
2023-05-15T02:16:56.731Z,22.20
2023-05-15T02:17:56.867Z,22.19
2023-05-15T02:18:56.845Z,22.19
2023-05-15T02:19:56.896Z,22.19
2023-05-15T02:20:56.922Z,22.19
2023-05-15T02:21:56.971Z,22.20
2023-05-15T02:22:57.009Z,22.19
2023-05-15T02:23:57.047Z,22.19
2023-05-15T02:24:57.094Z,22.19
2023-05-15T02:25:57.130Z,22.19
2023-05-15T02:26:57.171Z,22.19
2023-05-15T02:27:57.216Z,22.20
2023-05-15T02:28:57.259Z,22.19
2023-05-15T02:29:57.298Z,22.19
2023-05-15T02:30:57.335Z,22.19
2023-05-15T02:31:57.412Z,22.19
2023-05-15T02:32:57.462Z,22.20
2023-05-15T02:33:57.479Z,22.19
2023-05-15T02:34:57.515Z,22.19
2023-05-15T02:35:57.596Z,22.19
2023-05-15T02:36:57.616Z,22.19
2023-05-15T02:37:57.652Z,22.19
2023-05-15T02:38:57.730Z,22.19
2023-05-15T02:39:57.751Z,22.19
2023-05-15T02:40:57.794Z,22.19
2023-05-15T02:41:57.833Z,22.19
2023-05-15T02:42:57.874Z,22.19
2023-05-15T02:43:57.918Z,22.18
2023-05-15T02:44:57.977Z,22.18
2023-05-15T02:45:58.062Z,22.18
2023-05-15T02:46:58.069Z,22.19
2023-05-15T02:47:58.149Z,22.19
2023-05-15T02:48:58.163Z,22.19
2023-05-15T02:49:58.204Z,22.18
2023-05-15T02:50:58.257Z,22.18
2023-05-15T02:51:58.322Z,22.19
2023-05-15T02:52:58.337Z,22.18
2023-05-15T02:53:58.384Z,22.18
2023-05-15T02:54:58.428Z,22.18
2023-05-15T02:55:58.533Z,22.18
2023-05-15T02:56:58.516Z,22.18
2023-05-15T02:57:58.567Z,22.19
2023-05-15T02:58:58.599Z,22.18
2023-05-15T02:59:58.641Z,22.18
2023-05-15T03:00:58.735Z,22.18
2023-05-15T03:01:58.738Z,22.18
2023-05-15T03:02:58.843Z,22.18
2023-05-15T03:03:58.919Z,22.18
2023-05-15T03:04:58.882Z,22.18
2023-05-15T03:05:58.947Z,22.18
2023-05-15T03:06:58.970Z,22.18
2023-05-15T03:07:59.044Z,22.18
2023-05-15T03:08:59.052Z,22.18
2023-05-15T03:09:59.100Z,22.18
2023-05-15T03:10:59.151Z,22.17
2023-05-15T03:11:59.204Z,22.17
2023-05-15T03:12:59.246Z,22.18
2023-05-15T03:13:59.298Z,22.18
2023-05-15T03:14:59.334Z,22.18
2023-05-15T03:15:59.383Z,22.17
2023-05-15T03:16:59.494Z,22.17
2023-05-15T03:17:59.488Z,22.17
2023-05-15T03:18:59.509Z,22.17
2023-05-15T03:19:59.469Z,22.18
2023-05-15T03:20:59.479Z,22.17
2023-05-15T03:21:59.496Z,22.17
2023-05-15T03:22:59.512Z,22.17
2023-05-15T03:23:59.557Z,22.17
2023-05-15T03:24:59.536Z,22.18
2023-05-15T03:25:59.595Z,22.17
2023-05-15T03:26:59.632Z,22.17
2023-05-15T03:27:59.679Z,22.17
2023-05-15T03:28:59.726Z,22.17
2023-05-15T03:29:59.772Z,22.18
2023-05-15T03:30:59.867Z,22.17
2023-05-15T03:31:59.885Z,22.17
2023-05-15T03:32:59.979Z,22.17
2023-05-15T03:33:59.966Z,22.17
2023-05-15T03:35:00.017Z,22.17
2023-05-15T03:36:00.456Z,22.17
2023-05-15T03:37:00.128Z,22.17
2023-05-15T03:38:00.159Z,22.17
2023-05-15T03:39:00.211Z,22.17
2023-05-15T03:40:00.301Z,22.16
2023-05-15T03:41:00.293Z,22.17
2023-05-15T03:42:00.342Z,22.17
2023-05-15T03:43:00.382Z,22.16
2023-05-15T03:44:00.441Z,22.16
2023-05-15T03:45:00.489Z,22.17
2023-05-15T03:46:00.543Z,22.16
2023-05-15T03:47:00.620Z,22.16
2023-05-15T03:48:00.731Z,22.17
2023-05-15T03:49:00.700Z,22.16
2023-05-15T03:50:00.760Z,22.16
2023-05-15T03:51:00.806Z,22.17
2023-05-15T03:52:00.860Z,22.15
2023-05-15T03:53:00.911Z,22.16
2023-05-15T03:54:00.961Z,22.16
2023-05-15T03:55:01.005Z,22.16
2023-05-15T03:56:01.083Z,22.16
2023-05-15T03:57:01.121Z,22.16
2023-05-15T03:58:01.219Z,22.16
2023-05-15T03:59:01.213Z,22.16
2023-05-15T04:00:01.286Z,22.16
2023-05-15T04:01:01.311Z,22.16
2023-05-15T04:02:04.329Z,22.16
2023-05-15T04:03:01.464Z,22.16
2023-05-15T04:04:01.328Z,22.16
2023-05-15T04:05:01.345Z,22.16
2023-05-15T04:06:01.307Z,22.16
2023-05-15T04:07:01.295Z,22.16
2023-05-15T04:08:01.282Z,22.16
2023-05-15T04:09:01.295Z,22.16
2023-05-15T04:10:01.372Z,22.15
2023-05-15T04:11:01.402Z,22.15
2023-05-15T04:12:01.475Z,22.15
2023-05-15T04:13:01.493Z,22.15
2023-05-15T04:14:01.541Z,22.15
2023-05-15T04:15:01.613Z,22.15
2023-05-15T04:16:01.665Z,22.16
2023-05-15T04:17:01.691Z,22.16
2023-05-15T04:18:01.790Z,22.15
2023-05-15T04:19:01.809Z,22.15
2023-05-15T04:20:01.846Z,22.15
2023-05-15T04:21:01.892Z,22.16
2023-05-15T04:22:01.954Z,22.15
2023-05-15T04:23:01.988Z,22.15
2023-05-15T04:24:02.029Z,22.15
2023-05-15T04:25:02.082Z,22.14
2023-05-15T04:26:02.134Z,22.15
2023-05-15T04:27:02.249Z,22.16
2023-05-15T04:28:02.276Z,22.15
2023-05-15T04:29:04.452Z,22.15
2023-05-15T04:30:02.264Z,22.15
2023-05-15T04:31:02.253Z,22.15
2023-05-15T04:32:02.263Z,22.14
2023-05-15T04:33:02.297Z,22.14
2023-05-15T04:34:02.209Z,22.15
2023-05-15T04:35:02.192Z,22.15
2023-05-15T04:36:02.183Z,22.14
2023-05-15T04:37:02.162Z,22.15
2023-05-15T04:38:02.164Z,22.15
2023-05-15T04:39:02.149Z,22.15
2023-05-15T04:40:02.125Z,22.15
2023-05-15T04:41:02.114Z,22.15
2023-05-15T04:42:02.109Z,22.14
2023-05-15T04:43:02.107Z,22.13
2023-05-15T04:44:02.105Z,22.14
2023-05-15T04:45:02.059Z,22.14
2023-05-15T04:46:02.134Z,22.14
2023-05-15T04:47:02.027Z,22.14
2023-05-15T04:48:02.068Z,22.14
2023-05-15T04:49:02.007Z,22.14
2023-05-15T04:50:02.027Z,22.14
2023-05-15T04:51:01.957Z,22.14
2023-05-15T04:52:01.957Z,22.15
2023-05-15T04:53:01.924Z,22.14
2023-05-15T04:54:01.962Z,22.14
2023-05-15T04:55:02.036Z,22.14
2023-05-15T04:56:02.074Z,22.14
2023-05-15T04:57:02.126Z,22.14
2023-05-15T04:58:02.173Z,22.14
2023-05-15T04:59:02.229Z,22.14
2023-05-15T05:00:02.337Z,22.14
2023-05-15T05:01:04.203Z,22.13
2023-05-15T05:02:02.385Z,22.13
2023-05-15T05:03:02.323Z,22.13
2023-05-15T05:04:02.326Z,22.14
2023-05-15T05:05:02.272Z,22.14
2023-05-15T05:06:02.284Z,22.13
2023-05-15T05:07:02.256Z,22.14
2023-05-15T05:08:02.237Z,22.14
2023-05-15T05:09:02.233Z,22.14
2023-05-15T05:10:02.230Z,22.13
2023-05-15T05:11:02.199Z,22.14
2023-05-15T05:12:02.242Z,22.14
2023-05-15T05:13:02.180Z,22.13
2023-05-15T05:14:02.162Z,22.14
2023-05-15T05:15:02.143Z,22.14
2023-05-15T05:16:02.226Z,22.13
2023-05-15T05:17:02.135Z,22.13
2023-05-15T05:18:02.167Z,22.12
2023-05-15T05:19:02.114Z,22.12
2023-05-15T05:20:02.070Z,22.12
2023-05-15T05:21:02.059Z,22.13
2023-05-15T05:22:02.244Z,22.13
2023-05-15T05:23:02.050Z,22.13
2023-05-15T05:24:02.060Z,22.12
2023-05-15T05:25:02.088Z,22.13
2023-05-15T05:26:04.110Z,22.13
2023-05-15T05:27:02.241Z,22.12
2023-05-15T05:28:02.108Z,22.12
2023-05-15T05:29:02.099Z,22.12
2023-05-15T05:30:02.087Z,22.13
2023-05-15T05:31:02.158Z,22.13
2023-05-15T05:32:02.325Z,22.12
2023-05-15T05:33:02.134Z,22.12
2023-05-15T05:34:02.037Z,22.12
2023-05-15T05:35:02.055Z,22.12
2023-05-15T05:36:02.007Z,22.13
2023-05-15T05:37:02.252Z,22.12
2023-05-15T05:38:01.982Z,22.12
2023-05-15T05:39:02.247Z,22.12
2023-05-15T05:40:01.972Z,22.12
2023-05-15T05:41:01.948Z,22.12
2023-05-15T05:42:02.245Z,22.11
2023-05-15T05:43:01.930Z,22.12
2023-05-15T05:44:01.939Z,22.11
2023-05-15T05:45:01.901Z,22.12
2023-05-15T05:46:01.900Z,22.13
2023-05-15T05:47:02.296Z,22.14
2023-05-15T05:48:01.944Z,22.14
2023-05-15T05:49:01.855Z,22.14
2023-05-15T05:50:01.957Z,22.15
2023-05-15T05:51:01.971Z,22.15
2023-05-15T05:52:02.251Z,22.15
2023-05-15T05:53:02.073Z,22.15
2023-05-15T05:54:02.121Z,22.15
2023-05-15T05:55:02.177Z,22.15
2023-05-15T05:56:02.227Z,22.16
2023-05-15T05:58:04.772Z,22.17
2023-05-15T05:59:03.247Z,22.18
2023-05-15T06:00:17.934Z,22.19
2023-05-15T06:01:05.530Z,22.19
2023-05-15T06:04:05.702Z,22.18
2023-05-15T06:05:02.181Z,22.18
2023-05-15T06:06:17.762Z,22.18
2023-05-15T06:07:05.388Z,22.17
2023-05-15T06:08:02.182Z,22.17
2023-05-15T06:09:02.160Z,22.16
2023-05-15T06:10:02.143Z,22.15
2023-05-15T06:11:02.112Z,22.15
2023-05-15T06:12:02.552Z,22.14
2023-05-15T06:13:02.086Z,22.14
2023-05-15T06:14:02.082Z,22.14
2023-05-15T06:15:02.088Z,22.13
2023-05-15T06:16:02.036Z,22.12
2023-05-15T06:17:02.308Z,22.12
2023-05-15T06:18:02.061Z,22.11
2023-05-15T06:19:02.084Z,22.11
2023-05-15T06:20:02.130Z,22.11
2023-05-15T06:21:01.970Z,22.11
2023-05-15T06:22:02.268Z,22.10
2023-05-15T06:23:02.273Z,22.10
2023-05-15T06:24:01.949Z,22.09
2023-05-15T06:25:01.923Z,22.10
2023-05-15T06:26:01.908Z,22.09
2023-05-15T06:27:02.262Z,22.08
2023-05-15T06:28:01.905Z,22.09
2023-05-15T06:29:02.559Z,22.08
2023-05-15T06:30:01.998Z,22.09
2023-05-15T06:31:02.069Z,22.08
2023-05-15T06:32:02.281Z,22.08
2023-05-15T06:33:02.283Z,22.08
2023-05-15T06:34:02.211Z,22.07
2023-05-15T06:35:02.271Z,22.07
2023-05-15T06:36:02.369Z,22.07
2023-05-15T06:37:02.771Z,22.07
2023-05-15T06:38:02.405Z,22.07
2023-05-15T06:39:02.480Z,22.07
2023-05-15T06:40:02.524Z,22.07
2023-05-15T06:41:02.776Z,22.07
2023-05-15T06:42:02.794Z,22.06
2023-05-15T06:43:02.711Z,22.06
2023-05-15T06:44:02.770Z,22.06
2023-05-15T06:45:02.877Z,22.06
2023-05-15T06:46:02.917Z,22.06
2023-05-15T06:47:06.651Z,22.07
2023-05-15T06:48:02.992Z,22.06
2023-05-15T06:49:02.904Z,22.05
2023-05-15T06:50:10.298Z,22.06
2023-05-15T06:51:02.901Z,22.05
2023-05-15T06:52:06.517Z,22.05
2023-05-15T06:53:02.855Z,22.06
2023-05-15T06:54:03.275Z,22.06
2023-05-15T06:55:02.826Z,22.06
2023-05-15T06:56:02.813Z,22.07
2023-05-15T06:57:03.278Z,22.07
2023-05-15T06:58:02.789Z,22.07
2023-05-15T06:59:02.794Z,22.07
2023-05-15T07:00:02.791Z,22.07
2023-05-15T07:01:02.786Z,22.06
2023-05-15T07:02:02.828Z,22.06
2023-05-15T07:03:02.820Z,22.05
2023-05-15T07:05:02.777Z,22.05
2023-05-15T07:06:02.790Z,22.04
2023-05-15T07:07:02.713Z,22.04
2023-05-15T07:08:02.933Z,22.04
2023-05-15T07:09:02.716Z,22.05
2023-05-15T07:10:02.692Z,22.05
2023-05-15T07:11:02.782Z,22.04
2023-05-15T07:12:02.673Z,22.04
2023-05-15T07:13:02.656Z,22.04
2023-05-15T07:14:02.643Z,22.04
2023-05-15T07:15:02.829Z,22.04
2023-05-15T07:16:02.782Z,22.04
2023-05-15T07:17:02.662Z,22.04
2023-05-15T07:18:02.745Z,22.04
2023-05-15T07:19:02.676Z,22.04
2023-05-15T07:20:02.622Z,22.04
2023-05-15T07:21:02.787Z,22.04
2023-05-15T07:22:05.778Z,22.04
2023-05-15T07:23:02.786Z,22.03
2023-05-15T07:24:02.591Z,22.04
2023-05-15T07:25:05.742Z,22.04
2023-05-15T07:26:03.290Z,22.03
2023-05-15T07:27:02.526Z,22.04
2023-05-15T07:28:02.880Z,22.03
2023-05-15T07:29:02.797Z,22.03
2023-05-15T07:30:02.688Z,22.04
2023-05-15T07:31:06.345Z,22.04
2023-05-15T07:32:02.788Z,22.03
2023-05-15T07:33:02.496Z,22.03
2023-05-15T07:34:02.436Z,22.03
2023-05-15T07:35:02.463Z,22.03
2023-05-15T07:36:02.897Z,22.06
2023-05-15T07:37:09.862Z,22.08
2023-05-15T07:38:02.425Z,22.11
2023-05-15T07:39:02.374Z,22.15
2023-05-15T07:40:02.626Z,22.19
2023-05-15T07:41:02.835Z,22.22
2023-05-15T07:42:02.798Z,22.26
2023-05-15T07:43:06.037Z,22.31
2023-05-15T07:44:03.565Z,22.36
2023-05-15T07:45:02.329Z,22.39
2023-05-15T07:46:02.356Z,22.44
2023-05-15T07:47:05.468Z,22.49
2023-05-15T07:48:02.340Z,22.53
2023-05-15T07:49:02.321Z,22.56
2023-05-15T07:50:02.225Z,22.57
2023-05-15T07:51:02.170Z,22.61
2023-05-15T07:52:02.141Z,22.63
2023-05-15T07:53:03.328Z,22.66
2023-05-15T07:54:02.099Z,22.68
2023-05-15T07:55:02.138Z,22.70
2023-05-15T07:56:02.102Z,22.72
2023-05-15T07:57:02.294Z,22.72
2023-05-15T07:58:02.297Z,22.72
2023-05-15T07:59:09.600Z,22.70
2023-05-15T08:00:09.453Z,22.69
2023-05-15T08:01:17.623Z,22.67
2023-05-15T08:02:02.024Z,22.65
2023-05-15T08:03:02.387Z,22.63
2023-05-15T08:04:02.013Z,22.62
2023-05-15T08:05:01.898Z,22.60
2023-05-15T08:06:01.903Z,22.58
2023-05-15T08:07:01.889Z,22.57
2023-05-15T08:08:03.340Z,22.56
2023-05-15T08:09:01.886Z,22.54
2023-05-15T08:10:01.808Z,22.53
2023-05-15T08:11:05.061Z,22.51
2023-05-15T08:12:01.800Z,22.51
2023-05-15T08:13:02.018Z,22.49
2023-05-15T08:14:01.753Z,22.49
2023-05-15T08:15:01.695Z,22.48
2023-05-15T08:16:01.705Z,22.49
2023-05-15T08:17:01.689Z,22.50
2023-05-15T08:18:01.943Z,22.49
2023-05-15T08:19:01.744Z,22.50
2023-05-15T08:20:04.830Z,22.49
2023-05-15T08:21:04.904Z,22.49
2023-05-15T08:22:01.543Z,22.49
2023-05-15T08:23:01.512Z,22.47
2023-05-15T08:24:01.498Z,22.48
2023-05-15T08:25:01.479Z,22.50
2023-05-15T08:26:02.454Z,22.50
2023-05-15T08:27:01.420Z,22.50
2023-05-15T08:28:01.832Z,22.50
2023-05-15T08:29:01.448Z,22.51
2023-05-15T08:30:02.813Z,22.51
2023-05-15T08:31:01.398Z,22.52
2023-05-15T08:32:01.331Z,22.52
2023-05-15T08:33:01.367Z,22.53
2023-05-15T08:34:01.297Z,22.54
2023-05-15T08:35:01.334Z,22.54
2023-05-15T08:36:01.330Z,22.56
2023-05-15T08:37:01.265Z,22.56
2023-05-15T08:38:01.237Z,22.59
2023-05-15T08:39:01.397Z,22.60
2023-05-15T08:40:01.321Z,22.61
2023-05-15T08:41:01.207Z,22.61
2023-05-15T08:42:01.200Z,22.61
2023-05-15T08:43:01.198Z,22.61
2023-05-15T08:44:02.227Z,22.63
2023-05-15T08:45:01.321Z,22.65
2023-05-15T08:47:08.556Z,22.69
2023-05-15T08:49:01.197Z,22.70
2023-05-15T08:50:01.096Z,22.73
2023-05-15T08:51:01.070Z,22.76
2023-05-15T08:52:01.062Z,22.79
2023-05-15T08:53:01.324Z,22.82
2023-05-15T08:54:00.997Z,22.84
2023-05-15T08:55:01.003Z,22.87
2023-05-15T08:56:00.962Z,22.89
2023-05-15T08:57:00.950Z,22.92
2023-05-15T08:58:01.321Z,22.95
2023-05-15T08:59:32.757Z,22.97
2023-05-15T09:00:00.890Z,22.98
2023-05-15T09:01:00.859Z,23.00
2023-05-15T09:02:01.199Z,23.01
2023-05-15T09:03:01.923Z,23.03
2023-05-15T09:04:00.846Z,23.04
2023-05-15T09:05:00.831Z,23.06
2023-05-15T09:06:01.746Z,23.08
2023-05-15T09:07:00.731Z,23.09
2023-05-15T09:08:00.709Z,23.10
2023-05-15T09:09:16.317Z,23.11
2023-05-15T09:10:00.821Z,23.13
2023-05-15T09:11:00.642Z,23.14
2023-05-15T09:12:00.663Z,23.15
2023-05-15T09:13:00.598Z,23.16
2023-05-15T09:14:00.571Z,23.17
2023-05-15T09:15:00.880Z,23.20
2023-05-15T09:16:00.530Z,23.20
2023-05-15T09:17:00.564Z,23.22
2023-05-15T09:18:00.513Z,23.22
2023-05-15T09:19:00.726Z,23.24
2023-05-15T09:20:00.830Z,23.25
2023-05-15T09:21:00.431Z,23.27
2023-05-15T09:22:00.380Z,23.28
2023-05-15T09:23:00.829Z,23.29
2023-05-15T09:24:00.333Z,23.30
2023-05-15T09:25:00.333Z,23.31
2023-05-15T09:26:00.363Z,23.32
2023-05-15T09:27:00.250Z,23.33
2023-05-15T09:28:00.245Z,23.35
2023-05-15T09:29:00.192Z,23.36
2023-05-15T09:30:00.194Z,23.38
2023-05-15T09:31:00.373Z,23.39
2023-05-15T09:32:00.174Z,23.41
2023-05-15T09:33:01.112Z,23.42
2023-05-15T09:34:00.388Z,23.43
2023-05-15T09:35:00.035Z,23.43
2023-05-15T09:36:00.030Z,23.46
2023-05-15T09:37:01.058Z,23.47
2023-05-15T09:38:00.340Z,23.49
2023-05-15T09:39:00.111Z,23.51
2023-05-15T09:40:00.217Z,23.51
2023-05-15T09:41:00.171Z,23.52
2023-05-15T09:42:00.182Z,23.50
2023-05-15T09:43:00.807Z,23.49
2023-05-15T09:44:00.235Z,23.46
2023-05-15T09:45:00.252Z,23.45
2023-05-15T09:46:00.403Z,23.44
2023-05-15T09:47:00.513Z,23.44
2023-05-15T09:48:00.990Z,23.44
2023-05-15T09:49:00.406Z,23.45
2023-05-15T09:50:00.455Z,23.46
2023-05-15T09:51:00.493Z,23.47
2023-05-15T09:52:00.533Z,23.48
2023-05-15T09:53:00.570Z,23.49
2023-05-15T09:54:00.597Z,23.51
2023-05-15T09:55:00.656Z,23.52
2023-05-15T09:56:00.661Z,23.53
2023-05-15T09:57:00.708Z,23.54
2023-05-15T09:58:00.847Z,23.54
2023-05-15T09:59:00.787Z,23.56
2023-05-15T10:00:00.773Z,23.58
2023-05-15T10:01:00.830Z,23.59
2023-05-15T10:02:00.908Z,23.60
2023-05-15T10:03:01.976Z,23.61
2023-05-15T10:04:00.861Z,23.62
2023-05-15T10:05:00.898Z,23.62
2023-05-15T10:06:00.970Z,23.63
2023-05-15T10:07:00.935Z,23.63
2023-05-15T10:08:00.928Z,23.64
2023-05-15T10:09:00.944Z,23.64
2023-05-15T10:10:00.961Z,23.65
2023-05-15T10:11:01.406Z,23.66
2023-05-15T10:12:00.985Z,23.67
2023-05-15T10:13:01.347Z,23.68
2023-05-15T10:14:01.008Z,23.70
2023-05-15T10:15:01.250Z,23.71
2023-05-15T10:16:01.094Z,23.71
2023-05-15T10:17:01.053Z,23.73
2023-05-15T10:18:01.384Z,23.74
2023-05-15T10:19:02.869Z,23.74
2023-05-15T10:20:01.051Z,23.75
2023-05-15T10:21:01.041Z,23.75
2023-05-15T10:22:01.018Z,23.77
2023-05-15T10:23:01.356Z,23.77
2023-05-15T10:24:01.357Z,23.78
2023-05-15T10:25:00.916Z,23.79
2023-05-15T10:26:00.887Z,23.80
2023-05-15T10:27:00.862Z,23.79
2023-05-15T10:28:00.828Z,23.80
2023-05-15T10:29:00.858Z,23.82
2023-05-15T10:30:00.762Z,23.83
2023-05-15T10:31:00.870Z,23.84
2023-05-15T10:32:00.694Z,23.85
2023-05-15T10:33:00.821Z,23.86
2023-05-15T10:34:00.638Z,23.87
2023-05-15T10:35:00.636Z,23.88
2023-05-15T10:36:00.616Z,23.87
2023-05-15T10:37:00.558Z,23.88
2023-05-15T10:38:00.518Z,23.88
2023-05-15T10:39:00.480Z,23.88
2023-05-15T10:40:01.463Z,23.89
2023-05-15T10:41:15.973Z,23.89
2023-05-15T10:42:00.860Z,23.88
2023-05-15T10:43:00.392Z,23.89
2023-05-15T10:44:00.326Z,23.89
2023-05-15T10:45:00.472Z,23.89
2023-05-15T10:46:00.266Z,23.89
2023-05-15T10:47:00.278Z,23.89
2023-05-15T10:48:00.249Z,23.89
2023-05-15T10:49:00.367Z,23.91
2023-05-15T10:50:00.181Z,23.91
2023-05-15T10:51:00.394Z,23.91
2023-05-15T10:52:00.030Z,23.92
2023-05-15T10:53:00.002Z,23.92
2023-05-15T10:54:00.678Z,23.94
2023-05-15T10:54:59.935Z,23.94
2023-05-15T10:56:00.423Z,23.94
2023-05-15T10:57:00.850Z,23.94
2023-05-15T10:57:59.826Z,23.95
2023-05-15T10:58:59.785Z,23.94
2023-05-15T10:59:59.746Z,23.94
2023-05-15T11:00:59.987Z,23.95
2023-05-15T11:01:59.671Z,23.95
2023-05-15T11:02:59.684Z,23.95
2023-05-15T11:03:59.900Z,23.95
2023-05-15T11:04:59.569Z,23.95
2023-05-15T11:05:59.523Z,23.96
2023-05-15T11:06:59.490Z,23.96
2023-05-15T11:07:59.409Z,23.97
2023-05-15T11:08:59.380Z,23.99
2023-05-15T11:09:59.332Z,23.99
2023-05-15T11:10:59.286Z,24.00
2023-05-15T11:11:59.247Z,24.01
2023-05-15T11:12:59.218Z,24.01
2023-05-15T11:13:59.367Z,24.01
2023-05-15T11:14:59.120Z,24.01
2023-05-15T11:15:59.077Z,24.02
2023-05-15T11:16:59.063Z,24.01
2023-05-15T11:17:59.003Z,24.04
2023-05-15T11:18:59.398Z,24.04
2023-05-15T11:19:58.995Z,24.04
2023-05-15T11:20:59.369Z,24.03
2023-05-15T11:21:58.993Z,24.02
2023-05-15T11:22:59.064Z,24.01
2023-05-15T11:23:58.997Z,23.99
2023-05-15T11:24:59.377Z,23.99
2023-05-15T11:25:59.392Z,23.98
2023-05-15T11:26:59.249Z,23.97
2023-05-15T11:27:58.896Z,23.97
2023-05-15T11:28:58.872Z,23.97
2023-05-15T11:29:58.835Z,23.96
2023-05-15T11:30:58.856Z,23.95
2023-05-15T11:31:58.771Z,23.94
2023-05-15T11:32:59.005Z,23.93
2023-05-15T11:33:58.991Z,23.90
2023-05-15T11:34:58.878Z,23.89
2023-05-15T11:35:58.743Z,23.88
2023-05-15T11:36:58.875Z,23.87
2023-05-15T11:37:58.761Z,23.83
2023-05-15T11:38:58.768Z,23.81
2023-05-15T11:39:58.889Z,23.79
2023-05-15T11:40:58.833Z,23.78
2023-05-15T11:42:00.973Z,23.77
2023-05-15T11:42:58.737Z,23.76
2023-05-15T11:43:58.895Z,23.76
2023-05-15T11:44:58.696Z,23.74
2023-05-15T11:45:58.709Z,23.73
2023-05-15T11:46:58.665Z,23.73
2023-05-15T11:47:58.912Z,23.73
2023-05-15T11:49:00.170Z,23.74
2023-05-15T11:49:58.486Z,23.75
2023-05-15T11:50:58.488Z,23.75
2023-05-15T11:51:58.408Z,23.75
2023-05-15T11:52:58.368Z,23.77
2023-05-15T11:53:58.394Z,23.77
2023-05-15T11:54:59.309Z,23.77
2023-05-15T11:55:58.273Z,23.76
2023-05-15T11:56:58.201Z,23.76
2023-05-15T11:57:58.189Z,23.76
2023-05-15T11:58:58.120Z,23.75
2023-05-15T11:59:58.081Z,23.75
2023-05-15T12:00:58.062Z,23.74
2023-05-15T12:01:58.023Z,23.72
2023-05-15T12:02:58.112Z,23.73
2023-05-15T12:03:58.768Z,23.73
2023-05-15T12:04:57.933Z,23.74
2023-05-15T12:05:59.992Z,23.75
2023-05-15T12:06:57.845Z,23.75
2023-05-15T12:07:57.793Z,23.76
2023-05-15T12:08:57.910Z,23.76
2023-05-15T12:09:57.715Z,23.75
2023-05-15T12:10:57.705Z,23.75
2023-05-15T12:11:57.659Z,23.73
2023-05-15T12:12:57.594Z,23.72
2023-05-15T12:13:57.897Z,23.72
2023-05-15T12:14:57.523Z,23.73
2023-05-15T12:15:57.482Z,23.74
2023-05-15T12:16:57.478Z,23.75
2023-05-15T12:17:57.480Z,23.76
2023-05-15T12:18:57.619Z,23.79
2023-05-15T12:19:57.325Z,23.81
2023-05-15T12:20:57.300Z,23.83
2023-05-15T12:21:57.255Z,23.84
2023-05-15T12:22:57.219Z,23.87
2023-05-15T12:24:07.258Z,23.88
2023-05-15T12:24:57.142Z,23.88
2023-05-15T12:25:57.093Z,23.90
2023-05-15T12:26:57.719Z,23.90
2023-05-15T12:27:57.012Z,23.93
2023-05-15T12:28:57.407Z,23.93
2023-05-15T12:29:56.938Z,23.94
2023-05-15T12:30:56.892Z,23.96
2023-05-15T12:31:56.880Z,23.97
2023-05-15T12:32:56.855Z,24.00
2023-05-15T12:33:56.784Z,24.00
2023-05-15T12:34:56.744Z,24.01
2023-05-15T12:36:00.814Z,24.03
2023-05-15T12:36:56.662Z,24.03
2023-05-15T12:37:56.627Z,24.04
2023-05-15T12:38:56.902Z,24.04
2023-05-15T12:39:56.547Z,24.06
2023-05-15T12:40:56.511Z,24.06
2023-05-15T12:41:56.466Z,24.06
2023-05-15T12:42:56.475Z,24.07
2023-05-15T12:43:56.396Z,24.07
2023-05-15T12:44:56.411Z,24.09
2023-05-15T12:45:56.405Z,24.10
2023-05-15T12:46:56.267Z,24.11
2023-05-15T12:47:56.260Z,24.11
2023-05-15T12:48:56.199Z,24.12
2023-05-15T12:49:56.409Z,24.12
2023-05-15T12:50:56.136Z,24.12
2023-05-15T12:51:56.090Z,24.13
2023-05-15T12:52:56.031Z,24.13
2023-05-15T12:53:56.457Z,24.13
2023-05-15T12:54:56.442Z,24.14
2023-05-15T12:55:55.912Z,24.14
2023-05-15T12:56:57.554Z,24.15
2023-05-15T12:57:55.812Z,24.16
2023-05-15T12:58:55.798Z,24.16